Time;durP1;ratioP1;P1;durP2;ratioP2;P2;SDS_P1;SDS_P2;PMS_P1;PMS_P2;Temp;Humidity;BMP_temperature;BMP_pressure;BME280_temperature;BME280_humidity;BME280_pressure;Samples;Min_cycle;Max_cycle;Signal;HPM_P1;HPM_P2
2022/09/08 00:03:13;;;;;;;5.00;3.95;;;;;;;;;;10362892;28;20124;-79
2022/09/08 00:08:13;;;;;;;4.57;3.60;;;;;;;;;;10353006;28;20046;-78
2022/09/08 00:13:14;;;;;;;5.90;3.75;;;;;;;;;;10358087;28;20053;-77
2022/09/08 00:18:15;;;;;;;6.03;3.87;;;;;;;;;;10352219;28;20046;-78
2022/09/08 00:23:16;;;;;;;;;;;;;;;;;;10362918;28;20465;-79
2022/09/08 00:28:17;;;;;;;8.10;3.92;;;;;;;;;;10350531;28;19918;-79
2022/09/08 00:33:17;;;;;;;5.53;4.43;;;;;;;;;;10376643;28;20109;-80
2022/09/08 00:38:21;;;;;;;6.93;4.43;;;;;;;;;;10379455;28;20323;-78
2022/09/08 00:43:33;;;;;;;6.13;4.88;;;;;;;;;;10376116;28;21128;-80
2022/09/08 00:48:38;;;;;;;7.28;5.65;;;;;;;;;;10374862;28;20053;-78
2022/09/08 00:53:38;;;;;;;7.57;5.60;;;;;;;;;;10366760;28;20115;-81
2022/09/08 00:58:39;;;;;;;7.50;5.45;;;;;;;;;;10379708;28;20072;-80
2022/09/08 01:03:41;;;;;;;8.98;6.25;;;;;;;;;;10381829;28;20030;-79
2022/09/08 01:14:16;;;;;;;10.48;5.95;;;;;;;;;;10381517;28;20046;-79
2022/09/08 01:19:34;;;;;;;9.35;6.63;;;;;;;;;;10372715;28;20482;-81
2022/09/08 01:25:07;;;;;;;9.50;6.53;;;;;;;;;;10365894;28;20042;-80
2022/09/08 01:30:09;;;;;;;8.55;5.78;;;;;;;;;;10349625;28;20049;-79
2022/09/08 01:35:09;;;;;;;7.15;5.10;;;;;;;;;;10356404;28;20042;-78
2022/09/08 01:40:10;;;;;;;7.25;5.35;;;;;;;;;;10358249;28;20440;-79
2022/09/08 01:45:10;;;;;;;7.35;5.65;;;;;;;;;;10350986;28;20053;-78
2022/09/08 01:50:11;;;;;;;6.23;5.50;;;;;;;;;;10348428;28;20038;-80
2022/09/08 01:55:11;;;;;;;7.40;5.00;;;;;;;;;;10361965;28;20052;-82
2022/09/08 02:00:12;;;;;;;8.07;4.93;;;;;;;;;;10359296;28;20073;-78
2022/09/08 02:05:12;;;;;;;6.57;5.05;;;;;;;;;;10353200;28;20034;-79
2022/09/08 02:10:13;;;;;;;5.27;4.57;;;;;;;;;;10363981;28;20042;-80
2022/09/08 02:15:13;;;;;;;8.60;4.57;;;;;;;;;;10345672;28;20290;-80
2022/09/08 02:20:15;;;;;;;7.13;3.90;;;;;;;;;;10357044;28;20235;-80
2022/09/08 02:25:15;;;;;;;7.57;4.50;;;;;;;;;;10355746;28;20069;-80
2022/09/08 02:30:16;;;;;;;6.43;4.13;;;;;;;;;;10351378;28;20033;-80
2022/09/08 02:35:17;;;;;;;5.28;4.50;;;;;;;;;;10358332;28;20046;-78
2022/09/08 02:40:18;;;;;;;5.20;4.05;;;;;;;;;;10357290;28;20052;-79
2022/09/08 02:45:18;;;;;;;5.23;3.87;;;;;;;;;;10350870;28;20042;-78
2022/09/08 02:50:19;;;;;;;4.65;4.22;;;;;;;;;;10353784;28;20516;-79
2022/09/08 02:55:19;;;;;;;5.20;4.10;;;;;;;;;;10350017;28;20129;-78
2022/09/08 03:00:20;;;;;;;6.63;4.53;;;;;;;;;;10355908;28;20084;-78
2022/09/08 03:05:22;;;;;;;5.68;4.65;;;;;;;;;;10354256;28;20038;-80
2022/09/08 03:10:23;;;;;;;4.88;3.70;;;;;;;;;;10351939;28;20042;-78
2022/09/08 03:15:24;;;;;;;5.40;4.30;;;;;;;;;;10340619;28;20047;-78
2022/09/08 03:20:25;;;;;;;7.40;4.30;;;;;;;;;;10348632;28;20569;-77
2022/09/08 03:25:26;;;;;;;6.75;4.78;;;;;;;;;;10354468;28;20101;-78
2022/09/08 03:30:26;;;;;;;7.25;5.38;;;;;;;;;;10354019;28;20044;-78
2022/09/08 03:35:26;;;;;;;7.07;4.70;;;;;;;;;;10353997;28;20033;-82
2022/09/08 03:40:27;;;;;;;5.73;5.13;;;;;;;;;;10352753;28;20042;-79
2022/09/08 03:45:28;;;;;;;6.55;5.28;;;;;;;;;;10344402;28;20375;-79
2022/09/08 03:50:30;;;;;;;5.68;4.55;;;;;;;;;;10349352;28;20031;-79
2022/09/08 03:55:31;;;;;;;6.00;5.40;;;;;;;;;;10341689;28;20493;-80
2022/09/08 04:00:32;;;;;;;7.05;4.80;;;;;;;;;;10358741;28;20030;-79
2022/09/08 04:05:32;;;;;;;6.03;4.53;;;;;;;;;;10359297;28;20053;-81
2022/09/08 04:10:33;;;;;;;5.07;4.22;;;;;;;;;;10355857;28;20307;-80
2022/09/08 04:15:33;;;;;;;6.30;4.70;;;;;;;;;;10356269;28;20038;-80
2022/09/08 04:20:34;;;;;;;5.45;4.53;;;;;;;;;;10356266;28;20052;-78
2022/09/08 04:25:35;;;;;;;6.47;5.00;;;;;;;;;;10364193;28;20041;-79
2022/09/08 04:30:37;;;;;;;6.20;4.68;;;;;;;;;;10355266;28;20132;-79
2022/09/08 04:35:38;;;;;;;7.40;4.75;;;;;;;;;;10351930;28;20042;-81
2022/09/08 04:40:39;;;;;;;5.63;4.80;;;;;;;;;;10363646;28;20542;-73
2022/09/08 04:45:39;;;;;;;5.40;4.90;;;;;;;;;;10347989;28;20038;-73
2022/09/08 04:50:39;;;;;;;6.17;4.90;;;;;;;;;;10352616;28;20104;-72
2022/09/08 04:55:40;;;;;;;6.13;5.10;;;;;;;;;;10354678;28;20312;-73
2022/09/08 05:00:40;;;;;;;7.80;5.13;;;;;;;;;;10363091;28;20042;-79
2022/09/08 05:05:41;;;;;;;5.97;4.70;;;;;;;;;;10367981;28;20073;-80
2022/09/08 05:10:41;;;;;;;7.60;5.63;;;;;;;;;;10378456;28;20038;-77
2022/09/08 05:15:41;;;;;;;6.20;4.90;;;;;;;;;;10353719;28;20111;-79
2022/09/08 05:20:42;;;;;;;6.67;5.43;;;;;;;;;;10349609;28;20041;-77
2022/09/08 05:25:42;;;;;;;6.17;5.07;;;;;;;;;;10358663;28;20493;-78
2022/09/08 05:30:42;;;;;;;5.80;4.20;;;;;;;;;;10359025;28;20613;-83
2022/09/08 05:35:43;;;;;;;5.63;4.95;;;;;;;;;;10367399;28;20046;-76
2022/09/08 05:40:43;;;;;;;6.43;4.73;;;;;;;;;;10345104;28;20057;-76
2022/09/08 05:45:44;;;;;;;6.57;5.70;;;;;;;;;;10359825;28;20053;-75
2022/09/08 05:50:44;;;;;;;8.20;5.43;;;;;;;;;;10356260;28;20033;-74
2022/09/08 05:55:53;;;;;;;5.68;4.60;;;;;;;;;;10355292;28;20096;-73
2022/09/08 06:00:58;;;;;;;6.70;4.90;;;;;;;;;;10365541;28;20125;-75
2022/09/08 06:06:05;;;;;;;5.45;4.90;;;;;;;;;;10347722;28;20423;-74
2022/09/08 06:11:06;;;;;;;4.57;3.72;;;;;;;;;;10360368;28;20049;-75
2022/09/08 06:16:08;;;;;;;3.55;2.90;;;;;;;;;;10346028;28;20073;-76
2022/09/08 06:21:10;;;;;;;3.30;3.00;;;;;;;;;;10353436;28;20546;-76
2022/09/08 06:26:29;;;;;;;2.58;2.20;;;;;;;;;;10357598;28;20490;-72
2022/09/08 06:31:31;;;;;;;3.60;2.47;;;;;;;;;;10357544;28;20129;-72
2022/09/08 06:36:42;;;;;;;3.08;2.63;;;;;;;;;;10354178;28;20140;-74
2022/09/08 06:41:47;;;;;;;5.70;2.50;;;;;;;;;;10356840;28;20042;-73
2022/09/08 06:46:48;;;;;;;2.63;2.00;;;;;;;;;;10360833;28;20033;-72
2022/09/08 06:51:55;;;;;;;2.50;2.20;;;;;;;;;;10348311;28;20042;-73
2022/09/08 06:56:59;;;;;;;3.55;2.22;;;;;;;;;;10353597;28;20316;-77
2022/09/08 07:02:18;;;;;;;3.97;2.90;;;;;;;;;;10352498;28;20030;-74
2022/09/08 07:07:24;;;;;;;3.10;2.45;;;;;;;;;;10355468;28;20197;-75
2022/09/08 07:12:45;;;;;;;3.60;2.95;;;;;;;;;;10351795;28;20120;-72
2022/09/08 07:18:09;;;;;;;6.38;2.50;;;;;;;;;;10349921;28;20073;-72
2022/09/08 07:23:09;;;;;;;;;;;;;;;;;;10337991;28;20133;-73
2022/09/08 07:28:11;;;;;;;5.03;3.10;;;;;;;;;;10339084;28;19917;-75
2022/09/08 07:33:12;;;;;;;;;;;;;;;;;;10344851;28;20131;-73
2022/09/08 07:38:15;;;;;;;4.45;2.60;;;;;;;;;;10342497;28;20420;-72
2022/09/08 07:43:16;;;;;;;4.03;2.80;;;;;;;;;;10354872;28;20041;-72
2022/09/08 07:48:34;;;;;;;4.40;3.10;;;;;;;;;;10356958;28;20453;-71
2022/09/08 07:53:54;;;;;;;6.00;3.20;;;;;;;;;;10368333;28;20046;-74
2022/09/08 07:59:01;;;;;;;4.72;2.90;;;;;;;;;;10362377;28;20088;-71
2022/09/08 08:04:20;;;;;;;5.10;3.13;;;;;;;;;;10359685;28;20075;-74
2022/09/08 08:09:39;;;;;;;4.70;3.60;;;;;;;;;;10357342;28;20034;-72
2022/09/08 08:14:46;;;;;;;6.82;3.45;;;;;;;;;;10354984;28;20478;-74
2022/09/08 08:20:06;;;;;;;4.60;2.85;;;;;;;;;;10362061;28;20046;-74
2022/09/08 08:25:22;;;;;;;5.00;3.08;;;;;;;;;;10352271;28;20046;-73
2022/09/08 08:30:23;;;;;;;5.50;3.40;;;;;;;;;;10361170;28;20066;-74
2022/09/08 08:35:40;;;;;;;4.60;3.70;;;;;;;;;;10360870;28;20042;-73
2022/09/08 08:40:56;;;;;;;7.65;4.18;;;;;;;;;;10365818;28;20038;-73
2022/09/08 08:46:05;;;;;;;5.78;3.33;;;;;;;;;;10357600;28;20038;-74
2022/09/08 08:51:08;;;;;;;5.25;3.20;;;;;;;;;;10356993;28;20050;-74
2022/09/08 08:56:19;;;;;;;5.30;2.90;;;;;;;;;;10378032;28;20045;-74
2022/09/08 09:01:22;;;;;;;4.75;2.50;;;;;;;;;;10367747;28;20046;-77
2022/09/08 09:06:42;;;;;;;4.63;2.90;;;;;;;;;;10351066;28;20034;-73
2022/09/08 09:11:55;;;;;;;7.32;3.20;;;;;;;;;;10351776;28;20042;-74
2022/09/08 09:16:55;;;;;;;5.13;2.92;;;;;;;;;;10345608;28;20050;-75
2022/09/08 09:22:09;;;;;;;4.33;2.73;;;;;;;;;;10355846;28;20034;-75
2022/09/08 09:27:16;;;;;;;3.40;3.10;;;;;;;;;;10355923;28;20745;-77
2022/09/08 09:32:16;;;;;;;3.08;2.45;;;;;;;;;;10342489;28;20042;-75
2022/09/08 09:37:36;;;;;;;3.13;2.35;;;;;;;;;;10336694;28;20042;-76
2022/09/08 09:42:39;;;;;;;2.75;2.55;;;;;;;;;;10343237;28;20537;-75
2022/09/08 09:47:47;;;;;;;6.90;2.30;;;;;;;;;;10350612;28;20049;-78
2022/09/08 09:53:05;;;;;;;5.22;2.92;;;;;;;;;;10347218;28;20044;-74
2022/09/08 09:58:24;;;;;;;6.63;4.35;;;;;;;;;;10346676;28;20089;-75
2022/09/08 10:03:42;;;;;;;1.77;1.67;;;;;;;;;;10356186;28;20703;-73
2022/09/08 10:09:05;;;;;;;2.40;2.20;;;;;;;;;;10345539;28;20042;-75
2022/09/08 10:14:45;;;;;;;4.65;3.85;;;;;;;;;;10363090;28;20050;-74
2022/09/08 10:19:46;;;;;;;3.95;3.38;;;;;;;;;;10192554;29;20135;-74
2022/09/08 10:25:01;;;;;;;2.73;2.50;;;;;;;;;;10318007;28;20461;-76
2022/09/08 10:30:02;;;;;;;2.45;2.25;;;;;;;;;;10344582;28;20061;-80
2022/09/08 10:35:08;;;;;;;2.55;2.33;;;;;;;;;;10352033;28;20088;-76
2022/09/08 10:40:25;;;;;;;2.97;2.03;;;;;;;;;;10355246;28;20034;-74
2022/09/08 10:45:38;;;;;;;4.25;2.53;;;;;;;;;;10349891;28;20494;-78
2022/09/08 10:50:48;;;;;;;3.40;2.05;;;;;;;;;;10374718;28;20037;-76
2022/09/08 10:56:15;;;;;;;1.40;1.30;;;;;;;;;;10370262;28;20049;-77
2022/09/08 11:01:34;;;;;;;1.58;1.02;;;;;;;;;;10337020;28;20070;-76
2022/09/08 11:06:47;;;;;;;1.27;0.90;;;;;;;;;;10347979;28;20046;-75
2022/09/08 11:11:48;;;;;;;;;;;;;;;;;;10342680;28;20096;-77
2022/09/08 11:16:49;;;;;;;1.33;0.70;;;;;;;;;;10343794;28;19926;-77
2022/09/08 11:22:15;;;;;;;1.20;0.77;;;;;;;;;;10358228;28;20034;-76
2022/09/08 11:27:26;;;;;;;1.77;1.10;;;;;;;;;;10330353;28;20054;-76
2022/09/08 11:32:34;;;;;;;0.98;0.90;;;;;;;;;;10343398;28;20486;-79
2022/09/08 11:37:40;;;;;;;1.25;0.80;;;;;;;;;;10339871;28;20478;-77
2022/09/08 11:42:53;;;;;;;2.00;0.90;;;;;;;;;;10354871;28;20042;-78
2022/09/08 11:47:56;;;;;;;0.95;0.85;;;;;;;;;;10351579;28;20042;-77
2022/09/08 11:53:14;;;;;;;1.42;1.00;;;;;;;;;;10356685;28;20050;-76
2022/09/08 11:58:32;;;;;;;1.55;1.00;;;;;;;;;;10344317;28;20038;-79
2022/09/08 12:03:51;;;;;;;2.08;1.23;;;;;;;;;;10342146;28;20042;-76
2022/09/08 12:08:57;;;;;;;1.55;1.00;;;;;;;;;;10346150;28;20109;-79
2022/09/08 12:14:15;;;;;;;1.60;1.00;;;;;;;;;;10344588;28;20046;-79
2022/09/08 12:19:34;;;;;;;1.55;0.98;;;;;;;;;;10348501;28;20068;-78
2022/09/08 12:24:53;;;;;;;0.80;0.80;;;;;;;;;;10361719;28;20026;-77
2022/09/08 12:30:06;;;;;;;0.80;0.80;;;;;;;;;;10354847;28;20126;-77
2022/09/08 12:35:42;;;;;;;0.88;0.70;;;;;;;;;;10354989;28;20153;-77
2022/09/08 12:40:44;;;;;;;1.23;0.70;;;;;;;;;;10305396;28;20046;-76
2022/09/08 12:46:03;;;;;;;1.90;1.05;;;;;;;;;;10357928;28;20132;-79
2022/09/08 12:51:10;;;;;;;1.80;0.80;;;;;;;;;;10347298;28;20096;-76
2022/09/08 12:56:33;;;;;;;1.23;0.80;;;;;;;;;;10381997;28;20038;-76
2022/09/08 13:01:48;;;;;;;2.08;0.80;;;;;;;;;;10372552;28;20057;-75
2022/09/08 13:07:00;;;;;;;1.08;0.80;;;;;;;;;;10383077;28;20040;-78
2022/09/08 13:12:16;;;;;;;2.65;0.90;;;;;;;;;;10365587;28;20041;-78
2022/09/08 13:17:32;;;;;;;0.70;0.70;;;;;;;;;;10367132;28;20065;-74
2022/09/08 13:22:36;;;;;;;0.90;0.80;;;;;;;;;;10354242;28;20445;-74
2022/09/08 13:27:42;;;;;;;1.35;1.00;;;;;;;;;;10347797;28;20084;-75
2022/09/08 13:32:55;;;;;;;1.20;0.80;;;;;;;;;;10357823;28;20041;-76
2022/09/08 13:37:55;;;;;;;1.52;0.80;;;;;;;;;;10347631;28;20402;-76
2022/09/08 13:43:15;;;;;;;1.23;0.93;;;;;;;;;;10354595;28;20034;-75
2022/09/08 13:48:34;;;;;;;1.10;0.80;;;;;;;;;;10363269;28;20085;-74
2022/09/08 13:53:53;;;;;;;2.03;0.90;;;;;;;;;;10365013;28;20038;-78
2022/09/08 13:58:59;;;;;;;1.40;0.70;;;;;;;;;;10349765;28;20050;-76
2022/09/08 14:04:13;;;;;;;2.45;1.08;;;;;;;;;;10353989;28;20094;-77
2022/09/08 14:09:19;;;;;;;1.30;0.82;;;;;;;;;;10335798;28;20579;-78
2022/09/08 14:14:29;;;;;;;1.13;0.80;;;;;;;;;;10350281;28;20033;-77
2022/09/08 14:19:42;;;;;;;2.05;0.70;;;;;;;;;;10345192;28;20053;-77
2022/09/08 14:24:57;;;;;;;1.63;0.65;;;;;;;;;;10353935;28;20442;-77
2022/09/08 14:29:58;;;;;;;1.80;0.85;;;;;;;;;;10350169;28;20041;-76
2022/09/08 14:35:17;;;;;;;2.33;1.00;;;;;;;;;;10347978;28;20390;-77
2022/09/08 14:40:19;;;;;;;1.45;0.70;;;;;;;;;;10352859;28;20122;-77
2022/09/08 14:45:19;;;;;;;;;;;;;;;;;;10346134;28;20035;-75
2022/09/08 14:50:43;;;;;;;1.80;0.70;;;;;;;;;;10345485;28;20465;-76
2022/09/08 14:55:55;;;;;;;1.70;0.88;;;;;;;;;;10297780;28;20065;-77
2022/09/08 15:00:59;;;;;;;1.85;0.80;;;;;;;;;;10348771;28;20404;-76
2022/09/08 15:05:59;;;;;;;2.08;0.68;;;;;;;;;;10341841;28;20709;-76
2022/09/08 15:11:10;;;;;;;2.25;0.98;;;;;;;;;;10359165;28;20045;-78
2022/09/08 15:16:19;;;;;;;1.08;0.55;;;;;;;;;;10352091;28;20053;-76
2022/09/08 15:21:54;;;;;;;0.77;0.68;;;;;;;;;;10347343;28;20151;-78
2022/09/08 15:27:29;;;;;;;2.47;0.70;;;;;;;;;;10352068;28;20042;-75
2022/09/08 15:32:53;;;;;;;1.70;0.80;;;;;;;;;;10343066;28;20143;-75
2022/09/08 15:38:06;;;;;;;0.85;0.80;;;;;;;;;;10339345;28;20516;-76
2022/09/08 15:43:08;;;;;;;1.00;0.60;;;;;;;;;;10356083;28;20030;-78
2022/09/08 15:48:17;;;;;;;2.85;0.82;;;;;;;;;;10353177;28;20045;-74
2022/09/08 15:53:26;;;;;;;1.58;0.70;;;;;;;;;;10353112;28;20068;-74
2022/09/08 15:58:26;;;;;;;1.60;0.75;;;;;;;;;;10360595;28;20049;-74
2022/09/08 16:03:36;;;;;;;2.10;1.17;;;;;;;;;;10365984;28;20030;-74
2022/09/08 16:08:36;;;;;;;3.70;1.80;;;;;;;;;;10367450;28;20099;-76
2022/09/08 16:13:43;;;;;;;0.97;0.60;;;;;;;;;;10366275;28;20142;-75
2022/09/08 16:18:45;;;;;;;1.88;0.70;;;;;;;;;;10342099;28;20061;-73
2022/09/08 16:23:57;;;;;;;2.03;0.80;;;;;;;;;;10347592;28;20037;-74
2022/09/08 16:28:59;;;;;;;1.25;0.80;;;;;;;;;;10353747;28;20069;-72
2022/09/08 16:34:08;;;;;;;3.57;3.10;;;;;;;;;;10364288;28;20775;-74
2022/09/08 16:39:08;;;;;;;2.70;0.90;;;;;;;;;;10361924;28;20038;-74
2022/09/08 16:44:30;;;;;;;1.97;1.00;;;;;;;;;;10397173;28;20033;-74
2022/09/08 16:49:38;;;;;;;1.95;1.00;;;;;;;;;;10365882;28;20131;-74
2022/09/08 16:54:47;;;;;;;1.00;0.70;;;;;;;;;;10357156;28;20117;-75
2022/09/08 17:00:07;;;;;;;3.03;0.80;;;;;;;;;;10343941;28;20087;-75
2022/09/08 17:05:17;;;;;;;2.25;0.80;;;;;;;;;;10350231;28;20042;-75
2022/09/08 17:10:23;;;;;;;1.73;0.90;;;;;;;;;;10345674;28;20042;-75
2022/09/08 17:15:35;;;;;;;1.92;0.75;;;;;;;;;;10355109;28;20042;-76
2022/09/08 17:20:38;;;;;;;1.85;1.15;;;;;;;;;;10383499;28;20050;-75
2022/09/08 17:25:49;;;;;;;2.17;1.05;;;;;;;;;;10397444;28;20034;-75
2022/09/08 17:30:52;;;;;;;1.75;1.20;;;;;;;;;;10407473;28;20101;-78
2022/09/08 17:36:00;;;;;;;4.38;2.40;;;;;;;;;;10362400;28;20076;-78
2022/09/08 17:41:19;;;;;;;2.40;1.10;;;;;;;;;;10354530;28;20410;-77
2022/09/08 17:46:34;;;;;;;2.25;0.93;;;;;;;;;;10362843;28;20042;-77
2022/09/08 17:51:45;;;;;;;2.17;0.90;;;;;;;;;;10364471;28;20042;-76
2022/09/08 17:56:51;;;;;;;2.05;1.15;;;;;;;;;;10353986;28;20516;-76
2022/09/08 18:02:10;;;;;;;1.90;1.35;;;;;;;;;;10359294;28;20041;-76
2022/09/08 18:07:18;;;;;;;1.60;1.30;;;;;;;;;;10363667;28;20034;-75
2022/09/08 18:12:18;;;;;;;2.80;1.10;;;;;;;;;;10369961;28;20041;-76
2022/09/08 18:17:21;;;;;;;2.73;2.00;;;;;;;;;;10360190;28;20149;-76
2022/09/08 18:22:54;;;;;;;2.88;1.60;;;;;;;;;;10350867;28;20049;-76
2022/09/08 18:28:07;;;;;;;2.45;2.13;;;;;;;;;;10341272;28;20049;-77
2022/09/08 18:33:39;;;;;;;2.85;2.30;;;;;;;;;;10365483;28;20064;-76
2022/09/08 18:38:47;;;;;;;5.72;4.10;;;;;;;;;;10353970;28;20498;-76
2022/09/08 18:43:49;;;;;;;3.93;3.30;;;;;;;;;;10362617;28;20081;-77
2022/09/08 18:48:53;;;;;;;4.70;2.50;;;;;;;;;;10365800;28;20052;-76
2022/09/08 18:53:54;;;;;;;3.55;2.45;;;;;;;;;;10584728;23;20089;-87
2022/09/08 18:59:03;;;;;;;6.50;2.43;;;;;;;;;;10364730;28;20033;-85
2022/09/08 19:04:09;;;;;;;2.33;1.88;;;;;;;;;;10381199;28;20359;-83
2022/09/08 19:09:28;;;;;;;2.47;1.70;;;;;;;;;;10377989;28;20041;-84
2022/09/08 19:14:38;;;;;;;2.53;1.70;;;;;;;;;;10376703;28;20041;-82
2022/09/08 19:19:40;;;;;;;4.55;2.45;;;;;;;;;;10479823;22;20116;-82
2022/09/08 19:24:50;;;;;;;5.40;2.55;;;;;;;;;;10383333;28;20061;-81
2022/09/08 19:29:52;;;;;;;2.38;2.17;;;;;;;;;;10361754;28;20033;-76
2022/09/08 19:34:59;;;;;;;4.47;2.25;;;;;;;;;;10363110;28;20189;-76
2022/09/08 19:40:21;;;;;;;4.90;2.55;;;;;;;;;;10365006;28;20050;-75
2022/09/08 19:45:40;;;;;;;4.13;2.10;;;;;;;;;;10378492;28;20042;-74
2022/09/08 19:50:56;;;;;;;4.43;2.30;;;;;;;;;;10356987;28;20042;-74
2022/09/08 19:55:59;;;;;;;3.58;2.28;;;;;;;;;;10362023;28;20069;-75
2022/09/08 20:01:19;;;;;;;5.55;3.08;;;;;;;;;;10363364;28;20058;-77
2022/09/08 20:06:25;;;;;;;4.22;2.35;;;;;;;;;;10344591;28;20038;-78
2022/09/08 20:11:31;;;;;;;4.47;2.67;;;;;;;;;;10360846;28;20034;-76
2022/09/08 20:16:39;;;;;;;3.50;2.33;;;;;;;;;;10363975;28;20049;-80
2022/09/08 20:21:54;;;;;;;4.53;2.70;;;;;;;;;;10351446;28;20042;-76
2022/09/08 20:27:03;;;;;;;3.25;2.65;;;;;;;;;;10362762;28;20045;-79
2022/09/08 20:32:08;;;;;;;4.72;3.00;;;;;;;;;;10362866;28;20076;-76
2022/09/08 20:37:09;;;;;;;3.53;2.67;;;;;;;;;;10358487;28;20053;-78
2022/09/08 20:42:13;;;;;;;4.80;3.05;;;;;;;;;;10359858;28;20072;-82
2022/09/08 20:47:27;;;;;;;5.30;3.08;;;;;;;;;;10362495;28;20050;-77
2022/09/08 20:52:42;;;;;;;4.72;3.03;;;;;;;;;;10370990;28;20048;-77
2022/09/08 20:57:59;;;;;;;3.85;2.60;;;;;;;;;;10383595;28;20048;-76
2022/09/08 21:03:00;;;;;;;3.90;2.60;;;;;;;;;;10367606;28;20919;-76
2022/09/08 21:08:14;;;;;;;4.28;2.47;;;;;;;;;;10366762;28;20041;-76
2022/09/08 21:13:19;;;;;;;4.82;2.40;;;;;;;;;;10357472;28;20050;-76
2022/09/08 21:18:22;;;;;;;2.95;2.35;;;;;;;;;;10365746;28;20046;-73
2022/09/08 21:23:26;;;;;;;3.08;2.40;;;;;;;;;;10363577;28;20116;-75
2022/09/08 21:28:31;;;;;;;4.53;2.85;;;;;;;;;;10365810;28;20161;-76
2022/09/08 21:33:40;;;;;;;4.53;2.60;;;;;;;;;;10377166;28;20821;-74
2022/09/08 21:38:43;;;;;;;3.25;2.30;;;;;;;;;;10364622;28;20037;-75
2022/09/08 21:43:46;;;;;;;4.38;2.20;;;;;;;;;;10364449;28;20040;-76
2022/09/08 21:48:47;;;;;;;3.45;2.30;;;;;;;;;;10363182;28;20462;-77
2022/09/08 21:53:51;;;;;;;4.07;2.20;;;;;;;;;;10364774;28;20042;-75
2022/09/08 21:58:51;;;;;;;3.22;2.40;;;;;;;;;;10364352;28;20045;-77
2022/09/08 22:03:53;;;;;;;3.92;1.80;;;;;;;;;;10365787;28;20040;-75
2022/09/08 22:09:12;;;;;;;6.13;2.45;;;;;;;;;;10363984;28;20038;-75
2022/09/08 22:14:33;;;;;;;2.50;2.00;;;;;;;;;;10362230;28;20052;-74
2022/09/08 22:19:39;;;;;;;4.07;2.65;;;;;;;;;;10363489;28;20042;-76
2022/09/08 22:24:59;;;;;;;4.80;2.42;;;;;;;;;;10376081;28;20397;-78
2022/09/08 22:30:14;;;;;;;4.47;2.13;;;;;;;;;;10376754;28;20622;-77
2022/09/08 22:35:22;;;;;;;4.00;2.70;;;;;;;;;;10362965;28;20382;-79
2022/09/08 22:40:29;;;;;;;5.60;2.80;;;;;;;;;;10364470;28;20038;-78
2022/09/08 22:45:32;;;;;;;4.53;2.58;;;;;;;;;;10361080;28;20040;-77
2022/09/08 22:50:35;;;;;;;4.13;2.97;;;;;;;;;;10360456;28;20037;-77
2022/09/08 22:55:38;;;;;;;4.05;2.70;;;;;;;;;;10357788;28;20057;-77
2022/09/08 23:00:56;;;;;;;5.15;2.85;;;;;;;;;;10366293;28;20132;-76
2022/09/08 23:06:03;;;;;;;2.95;2.65;;;;;;;;;;10355880;28;20175;-76
2022/09/08 23:11:26;;;;;;;4.32;2.90;;;;;;;;;;10379703;28;20048;-75
2022/09/08 23:16:49;;;;;;;4.15;2.60;;;;;;;;;;10365314;28;20425;-76
2022/09/08 23:21:58;;;;;;;3.67;2.58;;;;;;;;;;10367136;28;20069;-76
2022/09/08 23:27:10;;;;;;;4.90;2.60;;;;;;;;;;10365285;28;20038;-76
2022/09/08 23:32:17;;;;;;;4.03;2.43;;;;;;;;;;10362889;28;20053;-76
2022/09/08 23:37:17;;;;;;;4.80;2.40;;;;;;;;;;10362222;28;20033;-80
2022/09/08 23:42:45;;;;;;;3.80;2.55;;;;;;;;;;10359592;28;20057;-74
2022/09/08 23:47:49;;;;;;;4.25;2.40;;;;;;;;;;10359638;28;20057;-75
2022/09/08 23:52:52;;;;;;;3.58;2.60;;;;;;;;;;10363793;28;20392;-78
2022/09/08 23:57:56;;;;;;;4.80;2.40;;;;;;;;;;10364217;28;20480;-77
